createdAt,value
2018-05-27T00:00:19.897Z,42.60
2018-05-27T00:02:46.930Z,41.90
2018-05-27T00:05:15.468Z,42.90
2018-05-27T00:10:09.560Z,42.90
2018-05-27T00:12:36.545Z,42.50
2018-05-27T00:15:03.542Z,42.30
2018-05-27T00:17:30.552Z,41.70
2018-05-27T00:19:57.546Z,42.80
2018-05-27T00:22:24.542Z,44.50
2018-05-27T00:24:51.568Z,45.40
2018-05-27T00:27:18.549Z,48.90
2018-05-27T00:29:46.489Z,47.70
2018-05-27T00:32:13.511Z,49.10
2018-05-27T00:34:41.379Z,51.30
2018-05-27T00:37:09.208Z,52.60
2018-05-27T00:39:36.245Z,51.40
2018-05-27T00:42:03.233Z,50.10
2018-05-27T00:44:30.227Z,50.90
2018-05-27T00:46:57.258Z,51.10
2018-05-27T00:49:24.247Z,50.70
2018-05-27T00:51:51.231Z,50.60
2018-05-27T00:54:18.987Z,54.70
2018-05-27T00:56:45.978Z,54.20
2018-05-27T00:59:12.973Z,58.30
2018-05-27T01:01:39.993Z,59.90
2018-05-27T01:04:06.972Z,61.20
2018-05-27T01:06:34.262Z,60.10
2018-05-27T01:11:43.487Z,60.30
2018-05-27T01:14:10.518Z,61.80
2018-05-27T01:16:37.532Z,63.20
2018-05-27T01:19:06.395Z,63.40
2018-05-27T01:21:33.419Z,62.20
2018-05-27T01:24:00.404Z,63.60
2018-05-27T01:26:27.393Z,65.20
2018-05-27T01:28:56.348Z,65.10
2018-05-27T01:31:23.344Z,63.50
2018-05-27T01:33:50.332Z,62.80
2018-05-27T01:36:17.358Z,61.90
2018-05-27T01:38:44.337Z,60.30
2018-05-27T01:41:11.327Z,61.20
2018-05-27T01:43:39.165Z,62.70
2018-05-27T01:46:06.153Z,60.80
2018-05-27T01:48:33.129Z,62.00
2018-05-27T01:51:00.144Z,61.90
2018-05-27T01:53:27.122Z,60.00
2018-05-27T01:55:54.108Z,60.70
2018-05-27T01:58:21.134Z,60.20
2018-05-27T02:00:48.123Z,60.40
2018-05-27T02:03:15.112Z,63.00
2018-05-27T02:05:42.127Z,62.40
2018-05-27T02:08:10.109Z,62.90
2018-05-27T02:10:37.087Z,65.00
2018-05-27T02:13:04.105Z,65.70
2018-05-27T02:15:31.090Z,67.60
2018-05-27T02:17:58.075Z,67.50
2018-05-27T02:20:25.108Z,67.60
2018-05-27T02:22:52.933Z,67.00
2018-05-27T02:28:00.416Z,65.00
2018-05-27T02:30:28.245Z,63.80
2018-05-27T02:32:55.289Z,63.30
2018-05-27T02:35:22.311Z,64.70
2018-05-27T02:37:49.305Z,66.00
2018-05-27T02:40:16.278Z,66.50
2018-05-27T02:42:43.309Z,66.50
2018-05-27T02:45:10.289Z,65.20
2018-05-27T02:47:37.261Z,66.60
2018-05-27T02:50:04.273Z,66.50
2018-05-27T02:52:31.257Z,68.10
2018-05-27T02:57:36.409Z,70.00
2018-05-27T03:00:03.348Z,70.20
2018-05-27T03:02:30.330Z,69.80
2018-05-27T03:04:57.343Z,68.60
2018-05-27T03:07:24.333Z,68.20
2018-05-27T03:09:51.309Z,66.10
2018-05-27T03:12:18.319Z,67.10
2018-05-27T03:14:45.295Z,70.20
2018-05-27T03:17:12.275Z,70.30
2018-05-27T03:19:39.305Z,69.60
2018-05-27T03:22:06.287Z,71.10
2018-05-27T03:24:33.259Z,71.10
2018-05-27T03:27:01.060Z,71.20
2018-05-27T03:29:28.071Z,71.40
2018-05-27T03:31:58.093Z,71.20
2018-05-27T03:34:25.113Z,69.30
2018-05-27T03:36:52.089Z,70.70
2018-05-27T03:39:19.913Z,70.30
2018-05-27T03:41:46.925Z,69.90
2018-05-27T03:46:40.977Z,71.90
2018-05-27T03:49:09.145Z,70.90
2018-05-27T03:51:36.120Z,72.00
2018-05-27T03:54:04.059Z,75.50
2018-05-27T03:56:31.084Z,76.80
2018-05-27T03:59:00.367Z,77.10
2018-05-27T04:01:27.379Z,78.00
2018-05-27T04:04:06.342Z,78.60
2018-05-27T04:09:18.155Z,77.50
2018-05-27T04:11:45.133Z,78.10
2018-05-27T04:14:12.116Z,76.10
2018-05-27T04:19:09.215Z,76.40
2018-05-27T04:24:03.252Z,77.20
2018-05-27T04:26:30.233Z,75.80
2018-05-27T04:28:57.211Z,75.90
2018-05-27T04:31:24.242Z,76.40
2018-05-27T04:33:51.223Z,78.40
2018-05-27T04:36:18.201Z,79.40
2018-05-27T04:38:46.197Z,78.60
2018-05-27T04:41:13.186Z,81.40
2018-05-27T04:43:40.160Z,82.40
2018-05-27T04:46:07.216Z,82.10
2018-05-27T04:48:34.194Z,82.90
2018-05-27T04:51:01.173Z,82.40
2018-05-27T04:53:28.198Z,84.10
2018-05-27T04:55:55.202Z,84.50
2018-05-27T04:58:23.015Z,84.70
2018-05-27T05:00:50.206Z,83.80
2018-05-27T05:03:17.218Z,85.80
2018-05-27T05:05:44.198Z,84.50
2018-05-27T05:08:11.516Z,81.20
2018-05-27T05:10:38.512Z,81.90
2018-05-27T05:13:05.491Z,84.60
2018-05-27T05:15:32.543Z,88.90
2018-05-27T05:17:59.519Z,88.70
2018-05-27T05:20:27.416Z,87.70
2018-05-27T05:22:54.444Z,88.80
2018-05-27T05:25:21.418Z,88.40
2018-05-27T05:27:48.396Z,86.80
2018-05-27T05:35:23.046Z,86.40
2018-05-27T05:37:50.927Z,85.60
2018-05-27T05:40:17.895Z,86.90
2018-05-27T05:42:44.912Z,87.00
2018-05-27T05:45:11.886Z,86.80
2018-05-27T05:47:38.859Z,87.70
2018-05-27T05:50:05.885Z,88.60
2018-05-27T05:52:32.865Z,89.60
2018-05-27T05:54:59.846Z,90.40
2018-05-27T05:57:26.867Z,88.50
2018-05-27T05:59:53.844Z,89.60
2018-05-27T06:02:20.828Z,90.90
2018-05-27T06:04:47.843Z,92.20
2018-05-27T06:07:14.831Z,91.90
2018-05-27T06:09:41.822Z,94.10
2018-05-27T06:12:08.831Z,92.60
2018-05-27T06:14:35.859Z,92.80
2018-05-27T06:17:02.839Z,92.00
2018-05-27T06:19:29.867Z,91.20
2018-05-27T06:21:57.023Z,91.00
2018-05-27T06:24:24.006Z,89.40
2018-05-27T06:26:51.023Z,89.50
2018-05-27T06:31:45.060Z,87.50
2018-05-27T06:34:12.072Z,87.90
2018-05-27T06:36:39.060Z,86.50
2018-05-27T06:39:06.044Z,86.10
2018-05-27T06:41:33.803Z,85.60
2018-05-27T06:44:00.777Z,87.70
2018-05-27T06:46:28.575Z,84.70
2018-05-27T06:48:55.584Z,85.30
2018-05-27T06:51:22.567Z,87.10
2018-05-27T06:53:49.557Z,84.70
2018-05-27T06:56:16.583Z,85.20
2018-05-27T07:01:22.084Z,85.40
2018-05-27T07:03:49.076Z,84.60
2018-05-27T07:06:16.076Z,84.60
2018-05-27T07:08:43.083Z,84.20
2018-05-27T07:11:10.063Z,84.80
2018-05-27T07:13:37.073Z,84.30
2018-05-27T07:16:04.101Z,84.80
2018-05-27T07:18:31.082Z,85.10
2018-05-27T07:21:00.172Z,86.30
2018-05-27T07:23:27.242Z,86.90
2018-05-27T07:25:55.092Z,86.80
2018-05-27T07:28:22.066Z,85.80
2018-05-27T07:30:49.817Z,86.20
2018-05-27T07:33:16.785Z,88.00
2018-05-27T07:35:43.764Z,87.30
2018-05-27T07:38:10.777Z,84.90
2018-05-27T07:40:39.841Z,85.10
2018-05-27T07:43:10.255Z,85.90
2018-05-27T07:45:37.236Z,84.40
2018-05-27T07:48:04.218Z,84.50
2018-05-27T07:50:31.223Z,83.70
2018-05-27T07:52:58.219Z,84.50
2018-05-27T07:55:25.208Z,83.30
2018-05-27T07:57:52.231Z,79.20
2018-05-27T08:00:19.212Z,80.00
2018-05-27T08:02:46.190Z,78.80
2018-05-27T08:05:13.200Z,78.20
2018-05-27T08:07:40.201Z,76.70
2018-05-27T08:10:10.519Z,76.20
2018-05-27T08:12:37.542Z,77.30
2018-05-27T08:15:04.532Z,78.00
2018-05-27T08:17:31.510Z,78.70
2018-05-27T08:19:58.611Z,81.60
2018-05-27T08:25:05.022Z,78.20
2018-05-27T08:27:31.985Z,77.00
2018-05-27T08:29:58.957Z,76.40
2018-05-27T08:32:26.924Z,74.00
2018-05-27T08:34:54.480Z,73.90
2018-05-27T08:37:21.460Z,70.20
2018-05-27T08:39:48.472Z,69.70
2018-05-27T08:42:15.457Z,75.00
2018-05-27T08:44:42.502Z,71.60
2018-05-27T08:47:09.517Z,69.90
2018-05-27T08:52:03.564Z,70.50
2018-05-27T08:54:30.594Z,71.20
2018-05-27T08:56:57.584Z,68.70
2018-05-27T08:59:24.561Z,68.50
2018-05-27T09:01:53.424Z,65.20
2018-05-27T09:04:20.405Z,69.50
2018-05-27T09:06:47.386Z,64.20
2018-05-27T09:09:14.413Z,67.50
2018-05-27T09:11:41.393Z,63.30
2018-05-27T09:14:08.364Z,63.30
2018-05-27T09:16:36.358Z,66.90
2018-05-27T09:19:03.335Z,66.90
2018-05-27T09:21:30.331Z,65.40
2018-05-27T09:23:57.368Z,57.50
2018-05-27T09:26:24.371Z,48.20
2018-05-27T09:28:51.388Z,35.70
2018-05-27T09:31:18.430Z,36.60
2018-05-27T09:33:45.407Z,34.70
2018-05-27T09:36:12.404Z,32.80
2018-05-27T09:38:39.476Z,28.00
2018-05-27T09:41:07.791Z,29.40
2018-05-27T09:46:14.186Z,24.90
2018-05-27T09:48:42.041Z,25.90
2018-05-27T09:53:38.285Z,24.90
2018-05-27T09:56:05.276Z,23.70
2018-05-27T09:58:32.296Z,25.20
2018-05-27T10:00:59.319Z,21.30
2018-05-27T10:03:27.310Z,23.80
2018-05-27T10:05:55.257Z,23.00
2018-05-27T10:08:22.298Z,24.70
2018-05-27T10:10:50.135Z,23.90
2018-05-27T10:13:17.132Z,21.70
2018-05-27T10:15:44.158Z,23.20
2018-05-27T10:18:11.955Z,23.40
2018-05-27T10:20:38.944Z,23.70
2018-05-27T10:23:05.982Z,24.20
2018-05-27T10:25:32.985Z,23.60
2018-05-27T10:27:59.971Z,24.10
2018-05-27T10:30:27.019Z,24.90
2018-05-27T10:32:56.237Z,26.60
2018-05-27T10:35:23.239Z,23.50
2018-05-27T10:37:51.093Z,24.10
2018-05-27T10:40:18.079Z,22.90
2018-05-27T10:42:45.061Z,24.10
2018-05-27T10:45:12.925Z,26.60
2018-05-27T10:50:21.368Z,22.40
2018-05-27T10:52:49.309Z,23.00
2018-05-27T10:55:16.285Z,23.20
2018-05-27T10:57:43.306Z,22.80
2018-05-27T11:00:11.128Z,23.50
2018-05-27T11:02:38.937Z,20.50
2018-05-27T11:05:06.697Z,21.80
2018-05-27T11:07:33.682Z,19.30
2018-05-27T11:10:00.680Z,15.90
2018-05-27T11:17:23.625Z,16.30
2018-05-27T11:19:50.645Z,16.50
2018-05-27T11:22:17.630Z,15.50
2018-05-27T11:24:44.615Z,14.80
2018-05-27T11:27:11.650Z,13.80
2018-05-27T11:29:38.639Z,14.90
2018-05-27T11:32:06.355Z,14.70
2018-05-27T11:34:33.364Z,11.80
2018-05-27T11:37:00.374Z,15.60
2018-05-27T11:39:27.327Z,15.50
2018-05-27T11:41:54.356Z,13.00
2018-05-27T11:44:21.339Z,12.20
2018-05-27T11:46:48.332Z,12.80
2018-05-27T11:49:15.345Z,13.50
2018-05-27T11:51:42.336Z,11.80
2018-05-27T11:54:10.077Z,11.30
2018-05-27T11:56:37.079Z,10.80
2018-05-27T11:59:04.059Z,8.50
2018-05-27T12:01:31.039Z,8.50
2018-05-27T12:03:58.961Z,9.60
2018-05-27T12:11:42.842Z,2.70
2018-05-27T12:14:10.020Z,5.60
2018-05-27T12:16:36.998Z,5.50
2018-05-27T12:19:03.979Z,6.20
2018-05-27T12:21:31.920Z,2.60
2018-05-27T12:26:26.197Z,4.60
2018-05-27T12:28:54.361Z,2.80
2018-05-27T12:31:21.339Z,2.90
2018-05-27T12:33:49.469Z,3.70
2018-05-27T12:36:16.556Z,3.10
2018-05-27T12:38:44.622Z,4.20
2018-05-27T12:41:12.683Z,2.20
2018-05-27T12:43:43.134Z,1.10
2018-05-27T12:46:11.458Z,1.20
2018-05-27T12:48:40.112Z,2.40
2018-05-27T12:51:08.784Z,1.00
2018-05-27T12:53:35.782Z,1.00
2018-05-27T12:56:02.843Z,1.50
2018-05-27T12:58:31.880Z,2.90
2018-05-27T13:01:00.731Z,5.10
2018-05-27T13:03:28.911Z,6.70
2018-05-27T13:05:56.270Z,6.60
2018-05-27T13:08:23.723Z,8.30
2018-05-27T13:10:51.819Z,6.90
2018-05-27T13:13:18.559Z,7.40
2018-05-27T13:15:45.646Z,6.30
2018-05-27T13:18:13.860Z,6.40
2018-05-27T13:20:41.933Z,5.40
2018-05-27T13:23:13.391Z,3.10
2018-05-27T13:25:41.357Z,2.50
2018-05-27T13:28:09.503Z,1.20
2018-05-27T13:30:36.640Z,1.60
2018-05-27T13:33:04.681Z,1.80
2018-05-27T13:35:31.701Z,3.40
2018-05-27T13:40:37.311Z,6.10
2018-05-27T13:43:04.368Z,6.40
2018-05-27T13:45:31.355Z,6.00
2018-05-27T13:48:00.498Z,5.30
2018-05-27T13:50:27.469Z,4.40
2018-05-27T13:52:55.386Z,5.00
2018-05-27T13:55:22.592Z,6.20
2018-05-27T13:57:49.537Z,6.40
2018-05-27T14:00:17.434Z,4.10
2018-05-27T14:02:47.207Z,4.00
2018-05-27T14:05:15.038Z,3.90
2018-05-27T14:07:42.010Z,5.60
2018-05-27T14:10:09.992Z,14.10
2018-05-27T14:12:36.966Z,17.60
2018-05-27T14:15:05.014Z,18.70
2018-05-27T14:20:00.129Z,23.90
2018-05-27T14:22:28.036Z,29.40
2018-05-27T14:24:55.065Z,29.10
2018-05-27T14:27:22.056Z,31.80
2018-05-27T14:29:49.972Z,28.80
2018-05-27T14:32:18.023Z,28.60
2018-05-27T14:34:45.005Z,26.30
2018-05-27T14:37:11.994Z,28.70
2018-05-27T14:39:39.005Z,24.20
2018-05-27T14:42:06.010Z,23.40
2018-05-27T14:44:32.992Z,22.40
2018-05-27T14:47:01.477Z,21.00
2018-05-27T14:49:28.460Z,20.10
2018-05-27T14:54:22.571Z,19.20
2018-05-27T14:56:50.516Z,16.30
2018-05-27T14:59:18.454Z,16.90
2018-05-27T15:01:46.251Z,18.00
2018-05-27T15:06:53.792Z,21.30
2018-05-27T15:09:20.845Z,21.60
2018-05-27T15:11:48.773Z,24.30
2018-05-27T15:16:43.611Z,23.60
2018-05-27T15:19:10.717Z,23.50
2018-05-27T15:21:38.539Z,22.60
2018-05-27T15:24:06.495Z,22.70
2018-05-27T15:26:33.471Z,23.90
2018-05-27T15:29:00.496Z,24.00
2018-05-27T15:31:27.481Z,25.90
2018-05-27T15:33:54.474Z,25.40
2018-05-27T15:36:21.552Z,26.50
2018-05-27T15:38:48.548Z,26.10
2018-05-27T15:41:16.472Z,27.30
2018-05-27T15:43:44.377Z,27.50
2018-05-27T15:46:11.403Z,26.00
2018-05-27T15:48:39.230Z,26.50
2018-05-27T15:51:06.665Z,26.80
2018-05-27T15:53:33.629Z,25.60
2018-05-27T15:56:01.564Z,23.40
2018-05-27T15:58:28.600Z,21.10
2018-05-27T16:00:55.588Z,23.20
2018-05-27T16:03:22.590Z,19.90
2018-05-27T16:05:49.640Z,18.30
2018-05-27T16:08:17.111Z,19.20
2018-05-27T16:10:44.100Z,20.80
2018-05-27T16:13:11.127Z,18.80
2018-05-27T16:15:38.303Z,19.90
2018-05-27T16:18:05.103Z,19.80
2018-05-27T16:20:32.132Z,17.40
2018-05-27T16:25:41.644Z,18.70
2018-05-27T16:28:08.492Z,17.60
2018-05-27T16:30:35.493Z,17.10
2018-05-27T16:33:02.516Z,15.10
2018-05-27T16:35:30.349Z,16.30
2018-05-27T16:37:58.318Z,17.00
2018-05-27T16:40:25.762Z,16.90
2018-05-27T16:42:53.663Z,18.20
2018-05-27T16:45:20.700Z,16.40
2018-05-27T16:50:14.799Z,17.10
2018-05-27T16:52:41.837Z,17.70
2018-05-27T16:55:08.833Z,16.50
2018-05-27T16:57:36.652Z,17.30
2018-05-27T17:00:04.571Z,16.80
2018-05-27T17:02:32.515Z,15.90
2018-05-27T17:04:59.499Z,17.10
2018-05-27T17:07:26.506Z,17.30
2018-05-27T17:09:54.495Z,21.60
2018-05-27T17:12:21.506Z,19.50
2018-05-27T17:17:16.533Z,22.00
2018-05-27T17:19:44.488Z,22.50
2018-05-27T17:22:11.486Z,22.70
2018-05-27T17:24:38.532Z,22.50
2018-05-27T17:29:49.069Z,22.10
2018-05-27T17:32:17.002Z,22.10
2018-05-27T17:34:44.964Z,22.50
2018-05-27T17:37:12.807Z,21.20
2018-05-27T17:39:39.821Z,21.40
2018-05-27T17:42:06.819Z,21.00
2018-05-27T17:44:34.663Z,21.70
2018-05-27T17:47:01.678Z,21.00
2018-05-27T17:49:28.637Z,21.80
2018-05-27T17:51:56.624Z,21.80
2018-05-27T17:54:23.657Z,20.00
2018-05-27T17:56:50.624Z,19.80
2018-05-27T17:59:18.605Z,19.70
2018-05-27T18:01:45.603Z,20.00
2018-05-27T18:04:12.602Z,19.30
2018-05-27T18:06:39.612Z,19.60
2018-05-27T18:09:07.456Z,19.80
2018-05-27T18:11:35.168Z,22.80
2018-05-27T18:14:02.225Z,23.80
2018-05-27T18:16:29.209Z,24.90
2018-05-27T18:18:57.062Z,22.10
2018-05-27T18:21:24.100Z,22.80
2018-05-27T18:23:51.959Z,21.10
2018-05-27T18:26:18.987Z,21.20
2018-05-27T18:31:14.005Z,22.40
2018-05-27T18:33:41.819Z,25.30
2018-05-27T18:36:09.607Z,25.80
2018-05-27T18:38:36.622Z,24.60
2018-05-27T18:41:03.597Z,23.50
2018-05-27T18:43:31.475Z,23.50
2018-05-27T18:48:37.950Z,23.60
2018-05-27T18:51:04.965Z,24.80
2018-05-27T18:53:32.907Z,26.00
2018-05-27T18:56:00.627Z,25.90
2018-05-27T18:58:27.622Z,25.70
2018-05-27T19:00:54.604Z,25.60
2018-05-27T19:03:21.684Z,26.30
2018-05-27T19:05:48.667Z,27.30
2018-05-27T19:08:16.830Z,27.50
2018-05-27T19:10:43.985Z,27.10
2018-05-27T19:13:11.000Z,27.80
2018-05-27T19:15:38.011Z,29.60
2018-05-27T19:18:05.048Z,30.80
2018-05-27T19:23:01.033Z,31.80
2018-05-27T19:25:26.236Z,33.00
2018-05-27T19:27:54.130Z,36.10
2018-05-27T19:30:21.120Z,38.30
2018-05-27T19:32:48.144Z,43.50
2018-05-27T19:35:16.001Z,52.10
2018-05-27T19:37:43.794Z,57.70
2018-05-27T19:40:10.846Z,62.00
2018-05-27T19:42:37.858Z,67.50
2018-05-27T19:45:06.080Z,67.70
2018-05-27T19:47:33.537Z,67.60
2018-05-27T19:50:02.382Z,68.20
2018-05-27T19:52:27.602Z,68.60
2018-05-27T20:00:05.037Z,69.70
2018-05-27T20:02:32.010Z,69.70
2018-05-27T20:04:59.733Z,68.40
2018-05-27T20:07:26.778Z,69.50
2018-05-27T20:09:53.815Z,71.70
2018-05-27T20:12:20.780Z,70.70
2018-05-27T20:14:48.782Z,71.20
2018-05-27T20:17:15.777Z,70.80
2018-05-27T20:19:42.826Z,71.60
2018-05-27T20:22:09.885Z,69.90
2018-05-27T20:24:41.635Z,67.90
2018-05-27T20:27:09.610Z,67.20
2018-05-27T20:29:36.598Z,63.00
2018-05-27T20:32:04.786Z,66.40
2018-05-27T20:34:32.641Z,67.50
2018-05-27T20:36:59.664Z,71.50
2018-05-27T20:39:26.714Z,71.90
2018-05-27T20:41:53.756Z,72.90
2018-05-27T20:44:20.781Z,74.80
2018-05-27T20:46:48.541Z,71.30
2018-05-27T20:49:15.593Z,69.10
2018-05-27T20:54:30.231Z,72.50
2018-05-27T20:59:25.267Z,78.10
2018-05-27T21:01:53.163Z,80.40
2018-05-27T21:04:21.008Z,82.10
2018-05-27T21:06:47.985Z,84.80
2018-05-27T21:09:15.033Z,86.90
2018-05-27T21:11:41.997Z,88.70
2018-05-27T21:14:08.978Z,89.30
2018-05-27T21:19:15.748Z,90.70
2018-05-27T21:21:42.763Z,90.40
2018-05-27T21:24:10.565Z,90.00
2018-05-27T21:26:38.385Z,89.90
2018-05-27T21:29:05.417Z,90.70
2018-05-27T21:31:32.418Z,91.30
2018-05-27T21:34:01.371Z,90.80
2018-05-27T21:36:28.393Z,90.90
2018-05-27T21:38:55.381Z,90.40
2018-05-27T21:41:22.449Z,89.70
2018-05-27T21:43:49.473Z,89.50
2018-05-27T21:48:43.544Z,89.90
2018-05-27T21:51:10.624Z,89.20
2018-05-27T21:56:04.721Z,88.90
2018-05-27T21:58:31.735Z,87.00
2018-05-27T22:00:58.714Z,88.00
2018-05-27T22:03:25.700Z,84.80
2018-05-27T22:05:52.727Z,85.50
2018-05-27T22:08:19.798Z,85.10
2018-05-27T22:10:46.778Z,85.80
2018-05-27T22:13:13.820Z,85.00
2018-05-27T22:15:41.267Z,85.20
2018-05-27T22:20:35.265Z,88.30
2018-05-27T22:23:02.248Z,89.30
2018-05-27T22:28:09.734Z,90.60
2018-05-27T22:30:36.713Z,91.70
2018-05-27T22:33:03.704Z,92.40
2018-05-27T22:35:30.737Z,92.70
2018-05-27T22:37:58.299Z,93.60
2018-05-27T22:40:25.289Z,94.00
2018-05-27T22:42:53.309Z,94.20
2018-05-27T22:45:20.673Z,94.50
2018-05-27T22:47:47.678Z,93.60
2018-05-27T22:50:14.745Z,93.10
2018-05-27T22:52:41.738Z,92.90
2018-05-27T22:55:08.719Z,91.10
2018-05-27T22:57:35.733Z,90.80
2018-05-27T23:00:02.720Z,91.30
2018-05-27T23:02:29.707Z,89.90
2018-05-27T23:04:56.732Z,90.10
2018-05-27T23:09:50.785Z,87.80
2018-05-27T23:12:17.813Z,86.60
2018-05-27T23:14:44.804Z,87.60
2018-05-27T23:17:11.789Z,88.00
2018-05-27T23:19:39.688Z,86.90
2018-05-27T23:22:06.676Z,86.30
2018-05-27T23:24:33.671Z,86.30
2018-05-27T23:27:00.705Z,85.40
2018-05-27T23:29:27.681Z,85.50
2018-05-27T23:31:55.481Z,85.50
2018-05-27T23:34:22.511Z,84.60
2018-05-27T23:36:50.453Z,83.60
2018-05-27T23:39:17.443Z,83.70
2018-05-27T23:41:44.465Z,84.00
2018-05-27T23:44:11.443Z,84.40
2018-05-27T23:49:18.947Z,84.00
2018-05-27T23:51:45.930Z,84.60
2018-05-27T23:54:12.909Z,86.30
2018-05-27T23:56:39.931Z,87.40
2018-05-27T23:59:06.913Z,87.80
